sensor_id;sensor_type;location;lat;lon;timestamp;P1;durP1;ratioP1;P2;durP2;ratioP2
39442;SDS011;25147;52.142;9.960;2024-01-16T00:02:24;5.67;;;1.80;;
39442;SDS011;25147;52.142;9.960;2024-01-16T00:04:52;3.77;;;1.70;;
39442;SDS011;25147;52.142;9.960;2024-01-16T00:07:18;4.17;;;2.00;;
39442;SDS011;25147;52.142;9.960;2024-01-16T00:09:45;3.67;;;1.90;;
39442;SDS011;25147;52.142;9.960;2024-01-16T00:12:12;5.10;;;2.20;;
39442;SDS011;25147;52.142;9.960;2024-01-16T00:14:38;2.73;;;1.70;;
39442;SDS011;25147;52.142;9.960;2024-01-16T00:17:05;3.80;;;1.93;;
39442;SDS011;25147;52.142;9.960;2024-01-16T00:19:32;3.97;;;1.60;;
39442;SDS011;25147;52.142;9.960;2024-01-16T00:22:00;3.67;;;1.50;;
39442;SDS011;25147;52.142;9.960;2024-01-16T00:24:29;6.57;;;1.97;;
39442;SDS011;25147;52.142;9.960;2024-01-16T00:26:56;3.40;;;2.00;;
39442;SDS011;25147;52.142;9.960;2024-01-16T00:29:22;2.00;;;1.30;;
39442;SDS011;25147;52.142;9.960;2024-01-16T00:31:49;5.37;;;1.30;;
39442;SDS011;25147;52.142;9.960;2024-01-16T00:34:16;5.07;;;1.50;;
39442;SDS011;25147;52.142;9.960;2024-01-16T00:36:43;4.00;;;1.40;;
39442;SDS011;25147;52.142;9.960;2024-01-16T00:39:11;3.90;;;1.70;;
39442;SDS011;25147;52.142;9.960;2024-01-16T00:41:38;1.77;;;1.27;;
39442;SDS011;25147;52.142;9.960;2024-01-16T00:44:05;1.63;;;1.53;;
39442;SDS011;25147;52.142;9.960;2024-01-16T00:46:33;3.73;;;1.47;;
39442;SDS011;25147;52.142;9.960;2024-01-16T00:48:59;3.67;;;1.27;;
39442;SDS011;25147;52.142;9.960;2024-01-16T00:51:26;3.87;;;1.37;;
39442;SDS011;25147;52.142;9.960;2024-01-16T00:53:53;1.57;;;1.30;;
39442;SDS011;25147;52.142;9.960;2024-01-16T00:56:21;3.93;;;1.33;;
39442;SDS011;25147;52.142;9.960;2024-01-16T00:58:48;3.30;;;1.00;;
39442;SDS011;25147;52.142;9.960;2024-01-16T01:01:15;2.43;;;1.57;;
39442;SDS011;25147;52.142;9.960;2024-01-16T01:03:41;4.30;;;1.50;;
39442;SDS011;25147;52.142;9.960;2024-01-16T01:06:08;4.90;;;1.40;;
39442;SDS011;25147;52.142;9.960;2024-01-16T01:08:35;5.07;;;1.40;;
39442;SDS011;25147;52.142;9.960;2024-01-16T01:11:02;2.93;;;1.10;;
39442;SDS011;25147;52.142;9.960;2024-01-16T01:13:30;2.43;;;1.30;;
39442;SDS011;25147;52.142;9.960;2024-01-16T01:15:57;3.27;;;1.40;;
39442;SDS011;25147;52.142;9.960;2024-01-16T01:18:24;2.73;;;1.40;;
39442;SDS011;25147;52.142;9.960;2024-01-16T01:20:51;3.60;;;1.53;;
39442;SDS011;25147;52.142;9.960;2024-01-16T01:23:17;7.63;;;1.87;;
39442;SDS011;25147;52.142;9.960;2024-01-16T01:25:43;2.13;;;1.50;;
39442;SDS011;25147;52.142;9.960;2024-01-16T01:28:10;2.30;;;1.30;;
39442;SDS011;25147;52.142;9.960;2024-01-16T01:30:38;2.43;;;1.47;;
39442;SDS011;25147;52.142;9.960;2024-01-16T01:33:05;3.10;;;1.37;;
39442;SDS011;25147;52.142;9.960;2024-01-16T01:35:32;2.83;;;1.43;;
39442;SDS011;25147;52.142;9.960;2024-01-16T01:37:59;2.53;;;1.40;;
39442;SDS011;25147;52.142;9.960;2024-01-16T01:40:25;4.60;;;1.53;;
39442;SDS011;25147;52.142;9.960;2024-01-16T01:42:52;2.67;;;1.87;;
39442;SDS011;25147;52.142;9.960;2024-01-16T01:45:19;5.13;;;1.90;;
39442;SDS011;25147;52.142;9.960;2024-01-16T01:47:48;4.00;;;1.93;;
39442;SDS011;25147;52.142;9.960;2024-01-16T01:50:15;2.70;;;1.67;;
39442;SDS011;25147;52.142;9.960;2024-01-16T01:52:42;3.47;;;1.70;;
39442;SDS011;25147;52.142;9.960;2024-01-16T01:55:10;4.10;;;1.53;;
39442;SDS011;25147;52.142;9.960;2024-01-16T01:57:40;5.13;;;2.13;;
39442;SDS011;25147;52.142;9.960;2024-01-16T02:00:08;5.13;;;1.70;;
39442;SDS011;25147;52.142;9.960;2024-01-16T02:02:36;4.80;;;1.90;;
39442;SDS011;25147;52.142;9.960;2024-01-16T02:05:05;2.90;;;1.93;;
39442;SDS011;25147;52.142;9.960;2024-01-16T02:07:32;6.53;;;1.80;;
39442;SDS011;25147;52.142;9.960;2024-01-16T02:10:00;7.47;;;2.40;;
39442;SDS011;25147;52.142;9.960;2024-01-16T02:12:29;4.60;;;2.00;;
39442;SDS011;25147;52.142;9.960;2024-01-16T02:14:56;3.67;;;1.60;;
39442;SDS011;25147;52.142;9.960;2024-01-16T02:17:23;3.80;;;2.03;;
39442;SDS011;25147;52.142;9.960;2024-01-16T02:19:49;3.60;;;2.00;;
39442;SDS011;25147;52.142;9.960;2024-01-16T02:22:19;4.37;;;1.93;;
39442;SDS011;25147;52.142;9.960;2024-01-16T02:24:49;3.47;;;1.67;;
39442;SDS011;25147;52.142;9.960;2024-01-16T02:27:16;3.00;;;1.87;;
39442;SDS011;25147;52.142;9.960;2024-01-16T02:29:43;6.33;;;1.77;;
39442;SDS011;25147;52.142;9.960;2024-01-16T02:32:10;3.97;;;1.90;;
39442;SDS011;25147;52.142;9.960;2024-01-16T02:34:38;4.33;;;1.73;;
39442;SDS011;25147;52.142;9.960;2024-01-16T02:37:05;5.30;;;2.10;;
39442;SDS011;25147;52.142;9.960;2024-01-16T02:39:32;3.77;;;1.70;;
39442;SDS011;25147;52.142;9.960;2024-01-16T02:42:00;6.67;;;2.00;;
39442;SDS011;25147;52.142;9.960;2024-01-16T02:44:27;4.60;;;1.90;;
39442;SDS011;25147;52.142;9.960;2024-01-16T02:46:53;5.30;;;1.67;;
39442;SDS011;25147;52.142;9.960;2024-01-16T02:49:20;6.07;;;2.40;;
39442;SDS011;25147;52.142;9.960;2024-01-16T02:51:47;6.80;;;1.60;;
39442;SDS011;25147;52.142;9.960;2024-01-16T02:54:14;3.57;;;1.53;;
39442;SDS011;25147;52.142;9.960;2024-01-16T02:56:41;4.33;;;2.00;;
39442;SDS011;25147;52.142;9.960;2024-01-16T02:59:09;3.73;;;1.73;;
39442;SDS011;25147;52.142;9.960;2024-01-16T03:01:36;5.63;;;1.50;;
39442;SDS011;25147;52.142;9.960;2024-01-16T03:04:03;5.57;;;1.50;;
39442;SDS011;25147;52.142;9.960;2024-01-16T03:06:30;5.63;;;1.43;;
39442;SDS011;25147;52.142;9.960;2024-01-16T03:08:57;4.30;;;1.60;;
39442;SDS011;25147;52.142;9.960;2024-01-16T03:11:24;5.17;;;1.67;;
39442;SDS011;25147;52.142;9.960;2024-01-16T03:13:50;6.60;;;1.37;;
39442;SDS011;25147;52.142;9.960;2024-01-16T03:16:20;3.73;;;1.30;;
39442;SDS011;25147;52.142;9.960;2024-01-16T03:18:47;5.70;;;1.23;;
39442;SDS011;25147;52.142;9.960;2024-01-16T03:21:14;3.30;;;1.43;;
39442;SDS011;25147;52.142;9.960;2024-01-16T03:23:41;3.30;;;1.03;;
39442;SDS011;25147;52.142;9.960;2024-01-16T03:26:11;4.77;;;1.07;;
39442;SDS011;25147;52.142;9.960;2024-01-16T03:28:38;4.97;;;1.47;;
39442;SDS011;25147;52.142;9.960;2024-01-16T03:31:05;2.57;;;1.00;;
39442;SDS011;25147;52.142;9.960;2024-01-16T03:33:34;9.57;;;1.50;;
39442;SDS011;25147;52.142;9.960;2024-01-16T03:36:01;2.00;;;1.13;;
39442;SDS011;25147;52.142;9.960;2024-01-16T03:38:28;4.90;;;1.10;;
39442;SDS011;25147;52.142;9.960;2024-01-16T03:40:55;4.13;;;1.17;;
39442;SDS011;25147;52.142;9.960;2024-01-16T03:43:22;3.67;;;1.20;;
39442;SDS011;25147;52.142;9.960;2024-01-16T03:45:48;6.93;;;1.50;;
39442;SDS011;25147;52.142;9.960;2024-01-16T03:48:15;9.20;;;2.13;;
39442;SDS011;25147;52.142;9.960;2024-01-16T03:50:43;3.97;;;1.53;;
39442;SDS011;25147;52.142;9.960;2024-01-16T03:53:10;8.20;;;1.40;;
39442;SDS011;25147;52.142;9.960;2024-01-16T03:55:38;9.77;;;1.83;;
39442;SDS011;25147;52.142;9.960;2024-01-16T03:58:04;5.73;;;1.07;;
39442;SDS011;25147;52.142;9.960;2024-01-16T04:00:31;6.87;;;1.90;;
39442;SDS011;25147;52.142;9.960;2024-01-16T04:02:59;5.83;;;1.70;;
39442;SDS011;25147;52.142;9.960;2024-01-16T04:05:25;6.83;;;1.50;;
39442;SDS011;25147;52.142;9.960;2024-01-16T04:07:54;4.33;;;1.50;;
39442;SDS011;25147;52.142;9.960;2024-01-16T04:10:21;6.63;;;2.13;;
39442;SDS011;25147;52.142;9.960;2024-01-16T04:12:47;8.10;;;1.77;;
39442;SDS011;25147;52.142;9.960;2024-01-16T04:15:14;5.10;;;1.80;;
39442;SDS011;25147;52.142;9.960;2024-01-16T04:17:41;6.07;;;2.03;;
39442;SDS011;25147;52.142;9.960;2024-01-16T04:20:08;6.10;;;1.70;;
39442;SDS011;25147;52.142;9.960;2024-01-16T04:22:36;9.90;;;2.70;;
39442;SDS011;25147;52.142;9.960;2024-01-16T04:25:04;5.23;;;1.77;;
39442;SDS011;25147;52.142;9.960;2024-01-16T04:27:31;5.60;;;1.90;;
39442;SDS011;25147;52.142;9.960;2024-01-16T04:29:58;6.83;;;2.13;;
39442;SDS011;25147;52.142;9.960;2024-01-16T04:32:25;5.03;;;2.00;;
39442;SDS011;25147;52.142;9.960;2024-01-16T04:34:52;8.27;;;2.03;;
39442;SDS011;25147;52.142;9.960;2024-01-16T04:37:19;9.10;;;1.90;;
39442;SDS011;25147;52.142;9.960;2024-01-16T04:39:45;7.83;;;1.93;;
39442;SDS011;25147;52.142;9.960;2024-01-16T04:42:14;7.07;;;1.90;;
39442;SDS011;25147;52.142;9.960;2024-01-16T04:44:43;6.90;;;2.13;;
39442;SDS011;25147;52.142;9.960;2024-01-16T04:47:09;6.80;;;2.00;;
39442;SDS011;25147;52.142;9.960;2024-01-16T04:49:36;5.30;;;1.60;;
39442;SDS011;25147;52.142;9.960;2024-01-16T04:52:03;5.30;;;1.57;;
39442;SDS011;25147;52.142;9.960;2024-01-16T04:54:31;4.60;;;1.70;;
39442;SDS011;25147;52.142;9.960;2024-01-16T04:56:58;7.60;;;1.80;;
39442;SDS011;25147;52.142;9.960;2024-01-16T04:59:26;7.80;;;2.23;;
39442;SDS011;25147;52.142;9.960;2024-01-16T05:01:52;5.30;;;2.20;;
39442;SDS011;25147;52.142;9.960;2024-01-16T05:04:20;6.23;;;1.73;;
39442;SDS011;25147;52.142;9.960;2024-01-16T05:06:49;7.80;;;2.10;;
39442;SDS011;25147;52.142;9.960;2024-01-16T05:09:16;4.43;;;1.90;;
39442;SDS011;25147;52.142;9.960;2024-01-16T05:11:44;6.97;;;2.00;;
39442;SDS011;25147;52.142;9.960;2024-01-16T05:14:11;11.93;;;2.13;;
39442;SDS011;25147;52.142;9.960;2024-01-16T05:16:39;5.70;;;2.27;;
39442;SDS011;25147;52.142;9.960;2024-01-16T05:19:06;3.90;;;1.80;;
39442;SDS011;25147;52.142;9.960;2024-01-16T05:21:40;6.20;;;2.03;;
39442;SDS011;25147;52.142;9.960;2024-01-16T05:24:20;4.40;;;1.73;;
39442;SDS011;25147;52.142;9.960;2024-01-16T05:26:47;7.43;;;2.23;;
39442;SDS011;25147;52.142;9.960;2024-01-16T05:29:16;7.13;;;2.27;;
39442;SDS011;25147;52.142;9.960;2024-01-16T05:31:45;7.87;;;2.10;;
39442;SDS011;25147;52.142;9.960;2024-01-16T05:34:12;5.00;;;2.13;;
39442;SDS011;25147;52.142;9.960;2024-01-16T05:36:39;7.33;;;2.20;;
39442;SDS011;25147;52.142;9.960;2024-01-16T05:39:07;8.20;;;2.10;;
39442;SDS011;25147;52.142;9.960;2024-01-16T05:41:34;5.93;;;2.10;;
39442;SDS011;25147;52.142;9.960;2024-01-16T05:44:00;3.77;;;1.90;;
39442;SDS011;25147;52.142;9.960;2024-01-16T05:46:29;4.63;;;2.00;;
39442;SDS011;25147;52.142;9.960;2024-01-16T05:48:57;7.10;;;2.37;;
39442;SDS011;25147;52.142;9.960;2024-01-16T05:51:24;7.83;;;2.23;;
39442;SDS011;25147;52.142;9.960;2024-01-16T05:53:51;10.10;;;2.33;;
39442;SDS011;25147;52.142;9.960;2024-01-16T05:56:20;8.27;;;2.63;;
39442;SDS011;25147;52.142;9.960;2024-01-16T05:58:47;4.53;;;1.90;;
39442;SDS011;25147;52.142;9.960;2024-01-16T06:01:14;10.60;;;2.40;;
39442;SDS011;25147;52.142;9.960;2024-01-16T06:03:40;6.60;;;2.53;;
39442;SDS011;25147;52.142;9.960;2024-01-16T06:06:13;4.70;;;2.47;;
39442;SDS011;25147;52.142;9.960;2024-01-16T06:08:40;10.90;;;2.60;;
39442;SDS011;25147;52.142;9.960;2024-01-16T06:11:07;7.87;;;2.57;;
39442;SDS011;25147;52.142;9.960;2024-01-16T06:13:33;6.90;;;2.30;;
39442;SDS011;25147;52.142;9.960;2024-01-16T06:16:00;9.20;;;2.87;;
39442;SDS011;25147;52.142;9.960;2024-01-16T06:18:27;6.27;;;2.60;;
39442;SDS011;25147;52.142;9.960;2024-01-16T06:20:54;11.83;;;3.17;;
39442;SDS011;25147;52.142;9.960;2024-01-16T06:23:22;5.27;;;2.47;;
39442;SDS011;25147;52.142;9.960;2024-01-16T06:25:49;6.27;;;3.10;;
39442;SDS011;25147;52.142;9.960;2024-01-16T06:28:16;7.87;;;2.77;;
39442;SDS011;25147;52.142;9.960;2024-01-16T06:30:42;5.17;;;2.80;;
39442;SDS011;25147;52.142;9.960;2024-01-16T06:33:09;9.50;;;2.57;;
39442;SDS011;25147;52.142;9.960;2024-01-16T06:35:36;6.90;;;2.60;;
39442;SDS011;25147;52.142;9.960;2024-01-16T06:38:03;9.17;;;2.73;;
39442;SDS011;25147;52.142;9.960;2024-01-16T06:40:31;10.17;;;3.23;;
39442;SDS011;25147;52.142;9.960;2024-01-16T06:43:01;5.93;;;3.10;;
39442;SDS011;25147;52.142;9.960;2024-01-16T06:45:28;8.60;;;3.00;;
39442;SDS011;25147;52.142;9.960;2024-01-16T06:47:55;7.27;;;3.20;;
39442;SDS011;25147;52.142;9.960;2024-01-16T06:50:22;13.70;;;4.50;;
39442;SDS011;25147;52.142;9.960;2024-01-16T06:52:49;9.37;;;3.73;;
39442;SDS011;25147;52.142;9.960;2024-01-16T06:55:16;8.17;;;3.70;;
39442;SDS011;25147;52.142;9.960;2024-01-16T06:57:44;9.90;;;4.77;;
39442;SDS011;25147;52.142;9.960;2024-01-16T07:00:12;5.43;;;3.90;;
39442;SDS011;25147;52.142;9.960;2024-01-16T07:02:40;10.47;;;4.17;;
39442;SDS011;25147;52.142;9.960;2024-01-16T07:05:08;10.00;;;4.60;;
39442;SDS011;25147;52.142;9.960;2024-01-16T07:07:35;11.17;;;4.30;;
39442;SDS011;25147;52.142;9.960;2024-01-16T07:10:02;10.87;;;4.47;;
39442;SDS011;25147;52.142;9.960;2024-01-16T07:12:32;9.67;;;4.03;;
39442;SDS011;25147;52.142;9.960;2024-01-16T07:15:00;7.10;;;4.37;;
39442;SDS011;25147;52.142;9.960;2024-01-16T07:17:27;11.77;;;4.37;;
39442;SDS011;25147;52.142;9.960;2024-01-16T07:19:54;8.97;;;4.07;;
39442;SDS011;25147;52.142;9.960;2024-01-16T07:22:21;8.03;;;4.10;;
39442;SDS011;25147;52.142;9.960;2024-01-16T07:24:47;7.27;;;4.03;;
39442;SDS011;25147;52.142;9.960;2024-01-16T07:27:14;10.70;;;3.80;;
39442;SDS011;25147;52.142;9.960;2024-01-16T07:29:41;7.60;;;4.47;;
39442;SDS011;25147;52.142;9.960;2024-01-16T07:32:10;7.97;;;4.20;;
39442;SDS011;25147;52.142;9.960;2024-01-16T07:34:37;8.67;;;3.23;;
39442;SDS011;25147;52.142;9.960;2024-01-16T07:37:04;6.17;;;3.70;;
39442;SDS011;25147;52.142;9.960;2024-01-16T07:39:30;8.83;;;3.80;;
39442;SDS011;25147;52.142;9.960;2024-01-16T07:41:57;8.10;;;3.30;;
39442;SDS011;25147;52.142;9.960;2024-01-16T07:44:24;7.10;;;3.87;;
39442;SDS011;25147;52.142;9.960;2024-01-16T07:46:51;6.17;;;3.57;;
39442;SDS011;25147;52.142;9.960;2024-01-16T07:49:19;9.13;;;3.60;;
39442;SDS011;25147;52.142;9.960;2024-01-16T07:51:49;9.00;;;3.30;;
39442;SDS011;25147;52.142;9.960;2024-01-16T07:54:15;7.13;;;3.50;;
39442;SDS011;25147;52.142;9.960;2024-01-16T07:56:42;7.07;;;3.20;;
39442;SDS011;25147;52.142;9.960;2024-01-16T07:59:09;7.13;;;3.03;;
39442;SDS011;25147;52.142;9.960;2024-01-16T08:01:36;8.27;;;3.43;;
39442;SDS011;25147;52.142;9.960;2024-01-16T08:04:03;7.50;;;4.17;;
39442;SDS011;25147;52.142;9.960;2024-01-16T08:06:32;7.60;;;3.23;;
39442;SDS011;25147;52.142;9.960;2024-01-16T08:09:00;8.57;;;3.60;;
39442;SDS011;25147;52.142;9.960;2024-01-16T08:11:27;8.57;;;3.57;;
39442;SDS011;25147;52.142;9.960;2024-01-16T08:13:54;8.30;;;2.93;;
39442;SDS011;25147;52.142;9.960;2024-01-16T08:16:21;8.97;;;3.50;;
39442;SDS011;25147;52.142;9.960;2024-01-16T08:18:48;9.97;;;3.53;;
39442;SDS011;25147;52.142;9.960;2024-01-16T08:21:15;7.73;;;2.77;;
39442;SDS011;25147;52.142;9.960;2024-01-16T08:23:43;8.70;;;3.40;;
39442;SDS011;25147;52.142;9.960;2024-01-16T08:26:10;5.33;;;2.93;;
39442;SDS011;25147;52.142;9.960;2024-01-16T08:28:37;8.17;;;3.03;;
39442;SDS011;25147;52.142;9.960;2024-01-16T08:31:03;7.80;;;3.30;;
39442;SDS011;25147;52.142;9.960;2024-01-16T08:33:30;8.77;;;3.63;;
39442;SDS011;25147;52.142;9.960;2024-01-16T08:35:57;7.70;;;3.13;;
39442;SDS011;25147;52.142;9.960;2024-01-16T08:38:24;8.77;;;3.37;;
39442;SDS011;25147;52.142;9.960;2024-01-16T08:40:52;6.60;;;3.10;;
39442;SDS011;25147;52.142;9.960;2024-01-16T08:43:19;7.53;;;3.53;;
39442;SDS011;25147;52.142;9.960;2024-01-16T08:45:46;8.20;;;3.87;;
39442;SDS011;25147;52.142;9.960;2024-01-16T08:48:13;8.40;;;3.27;;
39442;SDS011;25147;52.142;9.960;2024-01-16T08:50:41;9.03;;;3.40;;
39442;SDS011;25147;52.142;9.960;2024-01-16T08:53:08;8.13;;;3.73;;
39442;SDS011;25147;52.142;9.960;2024-01-16T08:55:44;7.07;;;3.40;;
39442;SDS011;25147;52.142;9.960;2024-01-16T08:58:12;10.30;;;3.23;;
39442;SDS011;25147;52.142;9.960;2024-01-16T09:00:38;8.47;;;3.67;;
39442;SDS011;25147;52.142;9.960;2024-01-16T09:03:06;7.60;;;3.37;;
39442;SDS011;25147;52.142;9.960;2024-01-16T09:05:33;9.27;;;3.63;;
39442;SDS011;25147;52.142;9.960;2024-01-16T09:08:04;7.13;;;3.47;;
39442;SDS011;25147;52.142;9.960;2024-01-16T09:10:31;13.93;;;3.97;;
39442;SDS011;25147;52.142;9.960;2024-01-16T09:12:57;8.10;;;3.67;;
39442;SDS011;25147;52.142;9.960;2024-01-16T09:15:26;7.90;;;3.27;;
39442;SDS011;25147;52.142;9.960;2024-01-16T09:17:52;6.30;;;3.37;;
39442;SDS011;25147;52.142;9.960;2024-01-16T09:20:19;8.60;;;3.37;;
39442;SDS011;25147;52.142;9.960;2024-01-16T09:22:46;7.93;;;3.33;;
39442;SDS011;25147;52.142;9.960;2024-01-16T09:25:13;8.67;;;4.00;;
39442;SDS011;25147;52.142;9.960;2024-01-16T09:27:41;7.90;;;4.53;;
39442;SDS011;25147;52.142;9.960;2024-01-16T09:30:08;5.53;;;4.07;;
39442;SDS011;25147;52.142;9.960;2024-01-16T09:32:36;7.23;;;3.73;;
39442;SDS011;25147;52.142;9.960;2024-01-16T09:35:03;8.50;;;4.20;;
39442;SDS011;25147;52.142;9.960;2024-01-16T09:37:32;10.83;;;4.23;;
39442;SDS011;25147;52.142;9.960;2024-01-16T09:40:00;9.73;;;4.60;;
39442;SDS011;25147;52.142;9.960;2024-01-16T09:42:27;10.00;;;3.77;;
39442;SDS011;25147;52.142;9.960;2024-01-16T09:44:54;8.33;;;4.63;;
39442;SDS011;25147;52.142;9.960;2024-01-16T09:47:22;7.63;;;4.57;;
39442;SDS011;25147;52.142;9.960;2024-01-16T09:49:52;9.37;;;4.07;;
39442;SDS011;25147;52.142;9.960;2024-01-16T09:52:21;8.23;;;4.13;;
39442;SDS011;25147;52.142;9.960;2024-01-16T09:54:48;6.30;;;3.97;;
39442;SDS011;25147;52.142;9.960;2024-01-16T09:57:14;11.00;;;4.70;;
39442;SDS011;25147;52.142;9.960;2024-01-16T09:59:45;6.83;;;3.80;;
39442;SDS011;25147;52.142;9.960;2024-01-16T10:02:14;6.13;;;4.50;;
39442;SDS011;25147;52.142;9.960;2024-01-16T10:04:41;10.13;;;5.70;;
39442;SDS011;25147;52.142;9.960;2024-01-16T10:07:12;6.80;;;4.17;;
39442;SDS011;25147;52.142;9.960;2024-01-16T10:09:42;8.83;;;4.63;;
39442;SDS011;25147;52.142;9.960;2024-01-16T10:12:09;8.80;;;4.53;;
39442;SDS011;25147;52.142;9.960;2024-01-16T10:14:36;10.10;;;4.30;;
39442;SDS011;25147;52.142;9.960;2024-01-16T10:17:04;4.87;;;3.87;;
39442;SDS011;25147;52.142;9.960;2024-01-16T10:19:34;5.67;;;3.83;;
39442;SDS011;25147;52.142;9.960;2024-01-16T10:22:02;6.23;;;4.17;;
39442;SDS011;25147;52.142;9.960;2024-01-16T10:24:31;7.97;;;4.80;;
39442;SDS011;25147;52.142;9.960;2024-01-16T10:27:01;39.87;;;19.90;;
39442;SDS011;25147;52.142;9.960;2024-01-16T10:29:29;11.60;;;4.60;;
39442;SDS011;25147;52.142;9.960;2024-01-16T10:31:56;8.13;;;4.07;;
39442;SDS011;25147;52.142;9.960;2024-01-16T10:34:23;13.57;;;4.67;;
39442;SDS011;25147;52.142;9.960;2024-01-16T10:36:50;9.20;;;4.70;;
39442;SDS011;25147;52.142;9.960;2024-01-16T10:39:24;5.50;;;3.93;;
39442;SDS011;25147;52.142;9.960;2024-01-16T10:41:56;8.17;;;4.53;;
39442;SDS011;25147;52.142;9.960;2024-01-16T10:44:24;7.77;;;4.10;;
39442;SDS011;25147;52.142;9.960;2024-01-16T10:46:52;8.87;;;4.50;;
39442;SDS011;25147;52.142;9.960;2024-01-16T10:49:36;8.23;;;4.53;;
39442;SDS011;25147;52.142;9.960;2024-01-16T10:52:04;9.33;;;4.13;;
39442;SDS011;25147;52.142;9.960;2024-01-16T10:54:39;11.23;;;4.07;;
39442;SDS011;25147;52.142;9.960;2024-01-16T10:57:11;6.87;;;4.13;;
39442;SDS011;25147;52.142;9.960;2024-01-16T10:59:40;7.03;;;4.27;;
39442;SDS011;25147;52.142;9.960;2024-01-16T11:02:13;6.75;;;4.10;;
39442;SDS011;25147;52.142;9.960;2024-01-16T11:04:41;6.50;;;3.88;;
39442;SDS011;25147;52.142;9.960;2024-01-16T11:07:09;9.15;;;4.40;;
39442;SDS011;25147;52.142;9.960;2024-01-16T11:09:37;5.93;;;4.00;;
39442;SDS011;25147;52.142;9.960;2024-01-16T11:12:05;5.87;;;3.87;;
39442;SDS011;25147;52.142;9.960;2024-01-16T11:14:34;6.87;;;3.97;;
39442;SDS011;25147;52.142;9.960;2024-01-16T11:17:03;7.37;;;4.07;;
39442;SDS011;25147;52.142;9.960;2024-01-16T11:19:31;5.73;;;3.97;;
39442;SDS011;25147;52.142;9.960;2024-01-16T11:21:59;11.67;;;4.43;;
39442;SDS011;25147;52.142;9.960;2024-01-16T11:24:30;6.07;;;3.70;;
39442;SDS011;25147;52.142;9.960;2024-01-16T11:26:59;7.10;;;3.50;;
39442;SDS011;25147;52.142;9.960;2024-01-16T11:29:36;10.20;;;3.63;;
39442;SDS011;25147;52.142;9.960;2024-01-16T11:32:03;8.27;;;3.80;;
39442;SDS011;25147;52.142;9.960;2024-01-16T11:37:26;7.60;;;3.67;;
39442;SDS011;25147;52.142;9.960;2024-01-16T11:42:49;7.90;;;3.50;;
39442;SDS011;25147;52.142;9.960;2024-01-16T11:48:19;4.53;;;3.23;;
39442;SDS011;25147;52.142;9.960;2024-01-16T11:50:47;6.67;;;3.67;;
39442;SDS011;25147;52.142;9.960;2024-01-16T11:59:07;6.53;;;3.93;;
39442;SDS011;25147;52.142;9.960;2024-01-16T12:01:58;8.57;;;4.10;;
39442;SDS011;25147;52.142;9.960;2024-01-16T12:04:26;6.67;;;4.03;;
39442;SDS011;25147;52.142;9.960;2024-01-16T12:06:59;9.27;;;4.13;;
39442;SDS011;25147;52.142;9.960;2024-01-16T12:09:27;6.33;;;4.50;;
39442;SDS011;25147;52.142;9.960;2024-01-16T12:11:57;6.27;;;4.13;;
39442;SDS011;25147;52.142;9.960;2024-01-16T12:14:26;6.57;;;4.60;;
39442;SDS011;25147;52.142;9.960;2024-01-16T12:17:08;8.93;;;4.37;;
39442;SDS011;25147;52.142;9.960;2024-01-16T12:19:36;10.90;;;4.90;;
39442;SDS011;25147;52.142;9.960;2024-01-16T12:22:05;6.67;;;5.23;;
39442;SDS011;25147;52.142;9.960;2024-01-16T12:24:35;9.93;;;5.10;;
39442;SDS011;25147;52.142;9.960;2024-01-16T12:27:02;10.23;;;5.77;;
39442;SDS011;25147;52.142;9.960;2024-01-16T12:29:30;10.40;;;5.60;;
39442;SDS011;25147;52.142;9.960;2024-01-16T12:32:04;8.23;;;5.87;;
39442;SDS011;25147;52.142;9.960;2024-01-16T12:34:33;11.70;;;6.43;;
39442;SDS011;25147;52.142;9.960;2024-01-16T12:37:04;9.63;;;7.37;;
39442;SDS011;25147;52.142;9.960;2024-01-16T12:39:32;11.47;;;7.80;;
39442;SDS011;25147;52.142;9.960;2024-01-16T12:42:00;10.13;;;7.93;;
39442;SDS011;25147;52.142;9.960;2024-01-16T12:44:28;11.40;;;8.60;;
39442;SDS011;25147;52.142;9.960;2024-01-16T12:46:55;14.83;;;9.60;;
39442;SDS011;25147;52.142;9.960;2024-01-16T12:49:22;11.63;;;9.30;;
39442;SDS011;25147;52.142;9.960;2024-01-16T12:51:51;16.80;;;10.40;;
39442;SDS011;25147;52.142;9.960;2024-01-16T12:54:18;11.13;;;9.50;;
39442;SDS011;25147;52.142;9.960;2024-01-16T12:56:47;15.70;;;11.17;;
39442;SDS011;25147;52.142;9.960;2024-01-16T12:59:14;13.43;;;11.33;;
39442;SDS011;25147;52.142;9.960;2024-01-16T13:01:44;18.67;;;12.07;;
39442;SDS011;25147;52.142;9.960;2024-01-16T13:04:12;14.80;;;10.70;;
39442;SDS011;25147;52.142;9.960;2024-01-16T13:06:40;16.60;;;11.57;;
39442;SDS011;25147;52.142;9.960;2024-01-16T13:09:10;15.53;;;12.13;;
39442;SDS011;25147;52.142;9.960;2024-01-16T13:11:47;19.60;;;12.00;;
39442;SDS011;25147;52.142;9.960;2024-01-16T13:14:15;15.57;;;12.30;;
39442;SDS011;25147;52.142;9.960;2024-01-16T13:16:42;17.07;;;12.03;;
39442;SDS011;25147;52.142;9.960;2024-01-16T13:19:11;15.37;;;11.90;;
39442;SDS011;25147;52.142;9.960;2024-01-16T13:21:38;13.73;;;10.70;;
39442;SDS011;25147;52.142;9.960;2024-01-16T13:24:06;14.30;;;10.33;;
39442;SDS011;25147;52.142;9.960;2024-01-16T13:26:35;16.60;;;11.17;;
39442;SDS011;25147;52.142;9.960;2024-01-16T13:29:02;13.30;;;9.60;;
39442;SDS011;25147;52.142;9.960;2024-01-16T13:31:31;18.00;;;10.50;;
39442;SDS011;25147;52.142;9.960;2024-01-16T13:33:58;14.70;;;9.63;;
39442;SDS011;25147;52.142;9.960;2024-01-16T13:36:24;14.50;;;9.10;;
39442;SDS011;25147;52.142;9.960;2024-01-16T13:38:51;20.60;;;9.23;;
39442;SDS011;25147;52.142;9.960;2024-01-16T13:41:18;16.33;;;9.13;;
39442;SDS011;25147;52.142;9.960;2024-01-16T13:43:47;13.07;;;8.60;;
39442;SDS011;25147;52.142;9.960;2024-01-16T13:46:15;16.97;;;8.50;;
39442;SDS011;25147;52.142;9.960;2024-01-16T13:48:43;12.70;;;8.30;;
39442;SDS011;25147;52.142;9.960;2024-01-16T13:51:10;8.73;;;7.37;;
39442;SDS011;25147;52.142;9.960;2024-01-16T13:53:37;12.30;;;7.67;;
39442;SDS011;25147;52.142;9.960;2024-01-16T13:56:04;14.83;;;7.80;;
39442;SDS011;25147;52.142;9.960;2024-01-16T13:58:30;11.23;;;7.00;;
39442;SDS011;25147;52.142;9.960;2024-01-16T14:00:59;12.20;;;5.93;;
39442;SDS011;25147;52.142;9.960;2024-01-16T14:03:26;8.57;;;6.07;;
39442;SDS011;25147;52.142;9.960;2024-01-16T14:05:53;8.03;;;5.60;;
39442;SDS011;25147;52.142;9.960;2024-01-16T14:08:21;16.77;;;5.23;;
39442;SDS011;25147;52.142;9.960;2024-01-16T14:10:47;10.60;;;5.70;;
39442;SDS011;25147;52.142;9.960;2024-01-16T14:13:14;11.40;;;4.40;;
39442;SDS011;25147;52.142;9.960;2024-01-16T14:15:41;8.50;;;4.20;;
39442;SDS011;25147;52.142;9.960;2024-01-16T14:18:09;8.33;;;4.40;;
39442;SDS011;25147;52.142;9.960;2024-01-16T14:20:36;6.47;;;3.97;;
39442;SDS011;25147;52.142;9.960;2024-01-16T14:23:03;8.47;;;4.23;;
39442;SDS011;25147;52.142;9.960;2024-01-16T14:25:30;9.70;;;4.30;;
39442;SDS011;25147;52.142;9.960;2024-01-16T14:27:58;9.23;;;4.37;;
39442;SDS011;25147;52.142;9.960;2024-01-16T14:30:28;7.73;;;4.07;;
39442;SDS011;25147;52.142;9.960;2024-01-16T14:32:55;8.93;;;3.80;;
39442;SDS011;25147;52.142;9.960;2024-01-16T14:35:25;5.30;;;3.70;;
39442;SDS011;25147;52.142;9.960;2024-01-16T14:37:52;6.07;;;3.77;;
39442;SDS011;25147;52.142;9.960;2024-01-16T14:40:19;7.03;;;4.17;;
39442;SDS011;25147;52.142;9.960;2024-01-16T14:42:50;9.40;;;4.70;;
39442;SDS011;25147;52.142;9.960;2024-01-16T14:45:21;11.17;;;3.70;;
39442;SDS011;25147;52.142;9.960;2024-01-16T14:47:52;12.27;;;4.40;;
39442;SDS011;25147;52.142;9.960;2024-01-16T14:50:19;7.13;;;3.80;;
39442;SDS011;25147;52.142;9.960;2024-01-16T14:52:51;6.50;;;3.10;;
39442;SDS011;25147;52.142;9.960;2024-01-16T14:55:21;10.43;;;3.80;;
39442;SDS011;25147;52.142;9.960;2024-01-16T14:57:53;7.27;;;3.40;;
39442;SDS011;25147;52.142;9.960;2024-01-16T15:00:25;5.57;;;3.27;;
39442;SDS011;25147;52.142;9.960;2024-01-16T15:02:53;7.37;;;3.70;;
39442;SDS011;25147;52.142;9.960;2024-01-16T15:05:23;9.83;;;3.33;;